createdAt,value
2022-11-22T00:00:45.016Z,6.70
2022-11-22T00:11:51.220Z,6.54
2022-11-22T00:17:03.371Z,6.45
2022-11-22T00:22:01.470Z,7.42
2022-11-22T00:26:59.410Z,7.93
2022-11-22T00:31:55.850Z,8.08
2022-11-22T00:36:49.730Z,6.14
2022-11-22T00:48:29.860Z,6.21
2022-11-22T01:00:11.089Z,7.26
2022-11-22T01:05:16.036Z,6.76
2022-11-22T01:10:19.045Z,7.66
2022-11-22T01:15:16.013Z,6.90
2022-11-22T01:20:13.577Z,8.18
2022-11-22T01:25:51.792Z,7.69
2022-11-22T01:30:58.773Z,7.65
2022-11-22T01:35:57.593Z,7.72
2022-11-22T01:40:55.932Z,6.70
2022-11-22T01:45:54.906Z,6.81
2022-11-22T01:50:59.584Z,6.88
2022-11-22T01:55:58.050Z,7.15
2022-11-22T02:00:55.275Z,6.41
2022-11-22T02:06:09.189Z,6.48
2022-11-22T02:11:16.638Z,7.55
2022-11-22T02:16:13.664Z,7.58
2022-11-22T02:21:11.261Z,7.35
2022-11-22T02:26:06.913Z,7.63
2022-11-22T02:31:41.808Z,6.58
2022-11-22T02:37:32.608Z,6.10
2022-11-22T02:43:24.968Z,8.05
2022-11-22T02:48:26.486Z,7.57
2022-11-22T02:54:18.798Z,7.48
2022-11-22T02:59:49.746Z,7.34
2022-11-22T03:05:03.204Z,6.04
2022-11-22T03:09:58.915Z,6.24
2022-11-22T03:14:56.611Z,6.41
2022-11-22T03:20:04.230Z,5.93
2022-11-22T03:25:09.608Z,7.75
2022-11-22T03:30:29.596Z,6.71
2022-11-22T03:36:12.655Z,6.46
2022-11-22T03:41:22.911Z,6.18
2022-11-22T03:46:26.705Z,7.37
2022-11-22T03:52:08.183Z,6.95
2022-11-22T03:57:12.820Z,7.35
2022-11-22T04:02:08.206Z,5.67
2022-11-22T04:07:02.170Z,6.33
2022-11-22T05:21:32.617Z,4.96
2022-11-22T05:46:32.407Z,6.37
2022-11-22T05:52:39.385Z,5.50
2022-11-22T05:58:36.318Z,5.39
2022-11-22T06:11:43.407Z,6.15
2022-11-22T06:17:40.233Z,4.65
2022-11-22T06:29:41.110Z,6.57
2022-11-22T06:35:14.583Z,6.63
2022-11-22T06:46:28.139Z,6.70
2022-11-22T06:51:23.380Z,5.78
2022-11-22T06:56:19.792Z,6.07
2022-11-22T07:01:19.307Z,6.82
2022-11-22T07:06:14.728Z,7.15
2022-11-22T07:11:09.348Z,7.00
2022-11-22T07:16:13.215Z,7.01
2022-11-22T07:21:13.259Z,7.39
2022-11-22T07:26:07.214Z,6.96
2022-11-22T07:31:01.239Z,6.85
2022-11-22T07:36:18.128Z,6.55
2022-11-22T07:41:11.627Z,7.05
2022-11-22T07:46:08.397Z,7.92
2022-11-22T07:51:08.061Z,7.79
2022-11-22T07:56:03.559Z,7.10
2022-11-22T08:00:57.011Z,8.24
2022-11-22T08:05:50.259Z,7.02
2022-11-22T08:10:52.859Z,7.15
2022-11-22T08:15:48.487Z,7.75
2022-11-22T08:20:41.975Z,8.26
2022-11-22T08:25:35.227Z,8.20
2022-11-22T08:30:29.849Z,8.19
2022-11-22T08:35:23.236Z,9.12
2022-11-22T08:40:17.188Z,9.30
2022-11-22T08:45:11.376Z,9.42
2022-11-22T08:50:07.667Z,9.82
2022-11-22T08:55:01.417Z,9.79
2022-11-22T08:59:54.887Z,11.78
2022-11-22T09:10:05.880Z,13.55
2022-11-22T09:15:06.209Z,13.32
2022-11-22T09:19:59.704Z,14.06
2022-11-22T09:25:15.274Z,14.32
2022-11-22T09:30:11.519Z,13.64
2022-11-22T09:35:10.569Z,13.57
2022-11-22T09:40:04.015Z,12.79
2022-11-22T09:45:18.920Z,12.87
2022-11-22T09:50:22.252Z,11.31
2022-11-22T09:55:25.151Z,11.81
2022-11-22T10:00:22.504Z,12.28
2022-11-22T10:05:22.205Z,11.31
2022-11-22T10:10:20.750Z,12.54
2022-11-22T10:15:27.396Z,12.62
2022-11-22T10:20:23.747Z,12.19
2022-11-22T10:25:20.724Z,12.98
2022-11-22T10:30:17.837Z,12.84
2022-11-22T10:35:25.828Z,13.08
2022-11-22T10:40:24.704Z,13.19
2022-11-22T10:45:25.847Z,13.82
2022-11-22T10:50:26.087Z,13.05
2022-11-22T10:55:23.381Z,14.00
2022-11-22T11:00:21.063Z,13.14
2022-11-22T11:05:19.817Z,13.93
2022-11-22T11:10:29.151Z,13.94
2022-11-22T11:15:35.441Z,13.89
2022-11-22T11:20:32.048Z,13.95
2022-11-22T11:25:35.452Z,13.53
2022-11-22T11:30:29.039Z,13.41
2022-11-22T11:35:32.544Z,12.18
2022-11-22T11:40:31.676Z,12.86
2022-11-22T11:45:30.901Z,12.70
2022-11-22T11:50:26.909Z,11.25
2022-11-22T11:55:38.679Z,12.70
2022-11-22T12:00:41.400Z,11.50
2022-11-22T12:05:36.074Z,12.27
2022-11-22T12:10:35.569Z,12.77
2022-11-22T12:15:37.746Z,12.80
2022-11-22T12:20:43.940Z,11.89
2022-11-22T12:25:41.027Z,11.47
2022-11-22T12:30:47.851Z,12.63
2022-11-22T12:36:01.070Z,12.82
2022-11-22T12:40:57.833Z,12.76
2022-11-22T12:45:55.304Z,13.10
2022-11-22T12:50:56.717Z,12.36
2022-11-22T12:56:03.343Z,11.67
2022-11-22T13:01:12.021Z,11.86
2022-11-22T13:06:13.974Z,12.10
2022-11-22T13:11:18.920Z,12.09
2022-11-22T13:16:16.055Z,12.63
2022-11-22T13:21:24.693Z,13.13
2022-11-22T13:26:30.570Z,12.66
2022-11-22T13:31:28.511Z,12.75
2022-11-22T13:36:43.085Z,13.23
2022-11-22T13:42:03.558Z,12.82
2022-11-22T13:47:05.128Z,11.91
2022-11-22T13:52:01.664Z,11.80
2022-11-22T13:57:07.075Z,11.77
2022-11-22T14:02:07.303Z,12.33
2022-11-22T14:07:06.562Z,12.00
2022-11-22T14:12:38.117Z,11.13
2022-11-22T14:17:41.750Z,11.22
2022-11-22T14:22:59.242Z,11.89
2022-11-22T14:28:35.558Z,11.36
2022-11-22T14:33:31.796Z,10.38
2022-11-22T14:38:34.962Z,10.44
2022-11-22T14:43:41.600Z,10.20
2022-11-22T14:48:47.552Z,10.39
2022-11-22T14:53:49.133Z,11.01
2022-11-22T14:59:08.273Z,11.03
2022-11-22T15:09:21.986Z,11.32
2022-11-22T15:10:30.851Z,10.40
2022-11-22T16:11:31.316Z,9.54
2022-11-22T16:17:09.964Z,10.00
2022-11-22T16:22:07.866Z,9.43
2022-11-22T16:27:17.512Z,10.47
2022-11-22T16:33:11.293Z,10.90
2022-11-22T16:38:33.958Z,10.28
2022-11-22T16:44:17.865Z,10.61
2022-11-22T16:50:10.111Z,10.27
2022-11-22T16:55:40.933Z,9.72
2022-11-22T17:13:24.690Z,9.63
2022-11-22T17:19:08.706Z,10.20
2022-11-22T18:17:40.905Z,9.01
2022-11-22T21:33:35.428Z,10.21
2022-11-22T22:13:25.436Z,8.99
2022-11-22T23:22:55.465Z,8.67
2022-11-22T23:28:59.821Z,10.49
2022-11-22T23:34:07.534Z,10.06
2022-11-22T23:45:00.606Z,9.69
2022-11-22T23:50:04.569Z,9.15
